sensor_id;sensor_type;location;lat;lon;timestamp;P1;durP1;ratioP1;P2;durP2;ratioP2
56307;SDS011;42217;50.422;7.210;2023-05-07T00:00:16;111.82;;;106.70;;
56307;SDS011;42217;50.422;7.210;2023-05-07T00:02:44;123.40;;;117.22;;
56307;SDS011;42217;50.422;7.210;2023-05-07T00:05:10;126.68;;;120.50;;
56307;SDS011;42217;50.422;7.210;2023-05-07T00:07:36;117.40;;;112.07;;
56307;SDS011;42217;50.422;7.210;2023-05-07T00:10:02;122.63;;;117.10;;
56307;SDS011;42217;50.422;7.210;2023-05-07T00:12:28;123.95;;;118.28;;
56307;SDS011;42217;50.422;7.210;2023-05-07T00:14:58;120.28;;;114.70;;
56307;SDS011;42217;50.422;7.210;2023-05-07T00:17:25;113.18;;;107.60;;
56307;SDS011;42217;50.422;7.210;2023-05-07T00:19:51;130.98;;;125.07;;
56307;SDS011;42217;50.422;7.210;2023-05-07T00:22:16;123.70;;;117.95;;
56307;SDS011;42217;50.422;7.210;2023-05-07T00:24:42;121.35;;;115.75;;
56307;SDS011;42217;50.422;7.210;2023-05-07T00:27:08;131.10;;;125.07;;
56307;SDS011;42217;50.422;7.210;2023-05-07T00:29:33;127.32;;;121.55;;
56307;SDS011;42217;50.422;7.210;2023-05-07T00:31:59;130.98;;;124.80;;
56307;SDS011;42217;50.422;7.210;2023-05-07T00:34:25;127.03;;;121.35;;
56307;SDS011;42217;50.422;7.210;2023-05-07T00:36:50;132.20;;;126.03;;
56307;SDS011;42217;50.422;7.210;2023-05-07T00:39:16;122.72;;;117.07;;
56307;SDS011;42217;50.422;7.210;2023-05-07T00:41:42;115.35;;;110.00;;
56307;SDS011;42217;50.422;7.210;2023-05-07T00:44:07;124.80;;;119.20;;
56307;SDS011;42217;50.422;7.210;2023-05-07T00:46:33;127.97;;;122.00;;
56307;SDS011;42217;50.422;7.210;2023-05-07T00:48:59;126.00;;;120.20;;
56307;SDS011;42217;50.422;7.210;2023-05-07T00:51:25;125.22;;;119.65;;
56307;SDS011;42217;50.422;7.210;2023-05-07T00:53:52;135.27;;;129.35;;
56307;SDS011;42217;50.422;7.210;2023-05-07T00:56:19;127.53;;;121.65;;
56307;SDS011;42217;50.422;7.210;2023-05-07T00:58:48;136.50;;;130.10;;
56307;SDS011;42217;50.422;7.210;2023-05-07T01:01:14;129.75;;;123.88;;
56307;SDS011;42217;50.422;7.210;2023-05-07T01:03:42;128.65;;;122.63;;
56307;SDS011;42217;50.422;7.210;2023-05-07T01:06:08;133.35;;;127.20;;
56307;SDS011;42217;50.422;7.210;2023-05-07T01:08:37;131.27;;;125.35;;
56307;SDS011;42217;50.422;7.210;2023-05-07T01:11:05;124.85;;;119.18;;
56307;SDS011;42217;50.422;7.210;2023-05-07T01:13:31;121.72;;;116.25;;
56307;SDS011;42217;50.422;7.210;2023-05-07T01:15:58;132.02;;;125.80;;
56307;SDS011;42217;50.422;7.210;2023-05-07T01:18:24;121.93;;;116.25;;
56307;SDS011;42217;50.422;7.210;2023-05-07T01:20:51;116.88;;;111.20;;
56307;SDS011;42217;50.422;7.210;2023-05-07T01:23:17;122.68;;;116.93;;
56307;SDS011;42217;50.422;7.210;2023-05-07T01:25:50;123.57;;;117.82;;
56307;SDS011;42217;50.422;7.210;2023-05-07T01:28:19;120.50;;;114.88;;
56307;SDS011;42217;50.422;7.210;2023-05-07T01:30:54;120.82;;;115.38;;
56307;SDS011;42217;50.422;7.210;2023-05-07T01:33:25;117.78;;;112.53;;
56307;SDS011;42217;50.422;7.210;2023-05-07T01:35:53;125.28;;;119.65;;
56307;SDS011;42217;50.422;7.210;2023-05-07T01:38:20;130.10;;;124.20;;
56307;SDS011;42217;50.422;7.210;2023-05-07T01:40:47;136.35;;;130.10;;
56307;SDS011;42217;50.422;7.210;2023-05-07T01:43:13;125.82;;;119.80;;
56307;SDS011;42217;50.422;7.210;2023-05-07T01:45:39;149.18;;;142.25;;
56307;SDS011;42217;50.422;7.210;2023-05-07T01:48:05;145.63;;;138.88;;
56307;SDS011;42217;50.422;7.210;2023-05-07T01:50:33;135.60;;;128.80;;
56307;SDS011;42217;50.422;7.210;2023-05-07T01:52:59;153.38;;;146.35;;
56307;SDS011;42217;50.422;7.210;2023-05-07T01:55:26;144.68;;;138.10;;
56307;SDS011;42217;50.422;7.210;2023-05-07T01:57:52;152.10;;;145.30;;
56307;SDS011;42217;50.422;7.210;2023-05-07T02:00:18;160.13;;;152.93;;
56307;SDS011;42217;50.422;7.210;2023-05-07T02:02:44;146.90;;;140.15;;
56307;SDS011;42217;50.422;7.210;2023-05-07T02:05:09;146.13;;;139.52;;
56307;SDS011;42217;50.422;7.210;2023-05-07T02:07:35;153.00;;;145.93;;
56307;SDS011;42217;50.422;7.210;2023-05-07T02:10:01;152.77;;;145.60;;
56307;SDS011;42217;50.422;7.210;2023-05-07T02:12:28;133.80;;;127.78;;
56307;SDS011;42217;50.422;7.210;2023-05-07T02:14:53;153.77;;;146.73;;
56307;SDS011;42217;50.422;7.210;2023-05-07T02:17:19;142.23;;;135.60;;
56307;SDS011;42217;50.422;7.210;2023-05-07T02:19:45;138.30;;;131.88;;
56307;SDS011;42217;50.422;7.210;2023-05-07T02:22:10;132.48;;;125.65;;
56307;SDS011;42217;50.422;7.210;2023-05-07T02:24:36;142.90;;;135.98;;
56307;SDS011;42217;50.422;7.210;2023-05-07T02:27:02;143.30;;;136.65;;
56307;SDS011;42217;50.422;7.210;2023-05-07T02:29:28;131.32;;;125.40;;
56307;SDS011;42217;50.422;7.210;2023-05-07T02:31:54;142.82;;;136.38;;
56307;SDS011;42217;50.422;7.210;2023-05-07T02:34:20;131.80;;;125.90;;
56307;SDS011;42217;50.422;7.210;2023-05-07T02:36:46;141.85;;;135.32;;
56307;SDS011;42217;50.422;7.210;2023-05-07T02:39:12;140.43;;;134.00;;
56307;SDS011;42217;50.422;7.210;2023-05-07T02:41:38;121.07;;;115.57;;
56307;SDS011;42217;50.422;7.210;2023-05-07T02:44:03;131.38;;;125.45;;
56307;SDS011;42217;50.422;7.210;2023-05-07T02:46:29;136.68;;;130.52;;
56307;SDS011;42217;50.422;7.210;2023-05-07T02:48:55;130.50;;;124.72;;
56307;SDS011;42217;50.422;7.210;2023-05-07T02:51:21;128.93;;;123.03;;
56307;SDS011;42217;50.422;7.210;2023-05-07T02:53:47;129.27;;;123.20;;
56307;SDS011;42217;50.422;7.210;2023-05-07T02:56:13;137.00;;;130.90;;
56307;SDS011;42217;50.422;7.210;2023-05-07T02:58:39;135.60;;;129.52;;
56307;SDS011;42217;50.422;7.210;2023-05-07T03:01:05;130.15;;;124.32;;
56307;SDS011;42217;50.422;7.210;2023-05-07T03:03:31;133.13;;;127.20;;
56307;SDS011;42217;50.422;7.210;2023-05-07T03:05:57;131.98;;;126.00;;
56307;SDS011;42217;50.422;7.210;2023-05-07T03:08:24;117.93;;;112.55;;
56307;SDS011;42217;50.422;7.210;2023-05-07T03:10:49;132.98;;;126.75;;
56307;SDS011;42217;50.422;7.210;2023-05-07T03:13:16;118.00;;;112.75;;
56307;SDS011;42217;50.422;7.210;2023-05-07T03:15:42;130.90;;;124.97;;
56307;SDS011;42217;50.422;7.210;2023-05-07T03:18:07;123.18;;;117.32;;
56307;SDS011;42217;50.422;7.210;2023-05-07T03:20:33;127.47;;;121.72;;
56307;SDS011;42217;50.422;7.210;2023-05-07T03:22:59;119.55;;;113.90;;
56307;SDS011;42217;50.422;7.210;2023-05-07T03:25:25;113.15;;;107.45;;
56307;SDS011;42217;50.422;7.210;2023-05-07T03:27:51;112.80;;;107.72;;
56307;SDS011;42217;50.422;7.210;2023-05-07T03:30:16;117.65;;;112.20;;
56307;SDS011;42217;50.422;7.210;2023-05-07T03:32:42;117.10;;;111.63;;
56307;SDS011;42217;50.422;7.210;2023-05-07T03:35:08;122.63;;;116.80;;
56307;SDS011;42217;50.422;7.210;2023-05-07T03:37:34;120.13;;;114.30;;
56307;SDS011;42217;50.422;7.210;2023-05-07T03:40:00;111.13;;;106.05;;
56307;SDS011;42217;50.422;7.210;2023-05-07T03:42:27;113.85;;;108.65;;
56307;SDS011;42217;50.422;7.210;2023-05-07T03:44:54;115.72;;;110.50;;
56307;SDS011;42217;50.422;7.210;2023-05-07T03:47:19;121.97;;;116.53;;
56307;SDS011;42217;50.422;7.210;2023-05-07T03:49:45;108.72;;;103.07;;
56307;SDS011;42217;50.422;7.210;2023-05-07T03:52:11;120.13;;;114.55;;
56307;SDS011;42217;50.422;7.210;2023-05-07T03:54:36;117.68;;;112.03;;
56307;SDS011;42217;50.422;7.210;2023-05-07T03:57:02;111.35;;;106.32;;
56307;SDS011;42217;50.422;7.210;2023-05-07T03:59:28;117.97;;;112.68;;
56307;SDS011;42217;50.422;7.210;2023-05-07T04:01:53;127.30;;;121.28;;
56307;SDS011;42217;50.422;7.210;2023-05-07T04:04:19;129.60;;;123.40;;
56307;SDS011;42217;50.422;7.210;2023-05-07T04:06:46;123.20;;;117.53;;
56307;SDS011;42217;50.422;7.210;2023-05-07T04:09:12;132.30;;;125.82;;
56307;SDS011;42217;50.422;7.210;2023-05-07T04:11:37;122.90;;;117.30;;
56307;SDS011;42217;50.422;7.210;2023-05-07T04:14:05;135.60;;;129.38;;
56307;SDS011;42217;50.422;7.210;2023-05-07T04:16:31;130.40;;;124.32;;
56307;SDS011;42217;50.422;7.210;2023-05-07T04:18:56;138.15;;;131.77;;
56307;SDS011;42217;50.422;7.210;2023-05-07T04:21:22;128.82;;;122.97;;
56307;SDS011;42217;50.422;7.210;2023-05-07T04:23:48;141.97;;;135.50;;
56307;SDS011;42217;50.422;7.210;2023-05-07T04:26:14;118.80;;;113.40;;
56307;SDS011;42217;50.422;7.210;2023-05-07T04:28:41;144.05;;;137.40;;
56307;SDS011;42217;50.422;7.210;2023-05-07T04:31:06;143.73;;;136.90;;
56307;SDS011;42217;50.422;7.210;2023-05-07T04:33:32;149.27;;;142.50;;
56307;SDS011;42217;50.422;7.210;2023-05-07T04:36:01;153.35;;;146.13;;
56307;SDS011;42217;50.422;7.210;2023-05-07T04:38:31;155.38;;;148.50;;
56307;SDS011;42217;50.422;7.210;2023-05-07T04:40:57;155.15;;;148.13;;
56307;SDS011;42217;50.422;7.210;2023-05-07T04:43:33;149.85;;;143.20;;
56307;SDS011;42217;50.422;7.210;2023-05-07T04:45:59;156.63;;;149.57;;
56307;SDS011;42217;50.422;7.210;2023-05-07T04:48:25;156.15;;;149.23;;
56307;SDS011;42217;50.422;7.210;2023-05-07T04:50:51;158.32;;;151.07;;
56307;SDS011;42217;50.422;7.210;2023-05-07T04:53:17;157.85;;;150.82;;
56307;SDS011;42217;50.422;7.210;2023-05-07T04:55:43;168.45;;;160.90;;
56307;SDS011;42217;50.422;7.210;2023-05-07T04:58:10;168.05;;;159.82;;
56307;SDS011;42217;50.422;7.210;2023-05-07T05:00:36;177.80;;;169.90;;
56307;SDS011;42217;50.422;7.210;2023-05-07T05:03:02;187.43;;;178.32;;
56307;SDS011;42217;50.422;7.210;2023-05-07T05:05:28;187.15;;;178.88;;
56307;SDS011;42217;50.422;7.210;2023-05-07T05:07:53;178.48;;;170.55;;
56307;SDS011;42217;50.422;7.210;2023-05-07T05:10:19;191.13;;;181.85;;
56307;SDS011;42217;50.422;7.210;2023-05-07T05:12:45;228.65;;;218.52;;
56307;SDS011;42217;50.422;7.210;2023-05-07T05:15:12;231.20;;;221.00;;
56307;SDS011;42217;50.422;7.210;2023-05-07T05:17:38;238.85;;;228.13;;
56307;SDS011;42217;50.422;7.210;2023-05-07T05:20:04;247.20;;;236.10;;
56307;SDS011;42217;50.422;7.210;2023-05-07T05:22:31;276.55;;;264.02;;
56307;SDS011;42217;50.422;7.210;2023-05-07T05:24:57;311.38;;;297.00;;
56307;SDS011;42217;50.422;7.210;2023-05-07T05:27:22;320.50;;;306.17;;
56307;SDS011;42217;50.422;7.210;2023-05-07T05:29:48;316.33;;;301.95;;
56307;SDS011;42217;50.422;7.210;2023-05-07T05:32:14;309.05;;;295.00;;
56307;SDS011;42217;50.422;7.210;2023-05-07T05:34:39;299.00;;;285.23;;
56307;SDS011;42217;50.422;7.210;2023-05-07T05:37:05;317.00;;;302.38;;
56307;SDS011;42217;50.422;7.210;2023-05-07T05:39:31;291.40;;;278.25;;
56307;SDS011;42217;50.422;7.210;2023-05-07T05:41:56;329.15;;;314.25;;
56307;SDS011;42217;50.422;7.210;2023-05-07T05:44:22;321.90;;;307.10;;
56307;SDS011;42217;50.422;7.210;2023-05-07T05:46:48;369.02;;;351.95;;
56307;SDS011;42217;50.422;7.210;2023-05-07T05:49:14;366.98;;;349.90;;
56307;SDS011;42217;50.422;7.210;2023-05-07T05:51:40;365.67;;;348.58;;
56307;SDS011;42217;50.422;7.210;2023-05-07T05:54:06;390.20;;;371.65;;
56307;SDS011;42217;50.422;7.210;2023-05-07T05:56:31;367.65;;;350.35;;
56307;SDS011;42217;50.422;7.210;2023-05-07T05:58:57;443.33;;;421.60;;
56307;SDS011;42217;50.422;7.210;2023-05-07T06:01:23;379.15;;;361.10;;
56307;SDS011;42217;50.422;7.210;2023-05-07T06:03:49;387.10;;;368.60;;
56307;SDS011;42217;50.422;7.210;2023-05-07T06:06:14;359.50;;;342.48;;
56307;SDS011;42217;50.422;7.210;2023-05-07T06:08:40;330.30;;;315.05;;
56307;SDS011;42217;50.422;7.210;2023-05-07T06:11:06;374.70;;;357.02;;
56307;SDS011;42217;50.422;7.210;2023-05-07T06:13:32;354.38;;;337.80;;
56307;SDS011;42217;50.422;7.210;2023-05-07T06:15:58;389.85;;;371.02;;
56307;SDS011;42217;50.422;7.210;2023-05-07T06:18:23;431.70;;;410.42;;
56307;SDS011;42217;50.422;7.210;2023-05-07T06:20:50;432.27;;;410.20;;
56307;SDS011;42217;50.422;7.210;2023-05-07T06:23:16;455.45;;;432.17;;
56307;SDS011;42217;50.422;7.210;2023-05-07T06:25:42;477.45;;;453.08;;
56307;SDS011;42217;50.422;7.210;2023-05-07T06:28:13;514.00;;;487.25;;
56307;SDS011;42217;50.422;7.210;2023-05-07T06:30:38;523.83;;;496.08;;
56307;SDS011;42217;50.422;7.210;2023-05-07T06:33:05;537.88;;;509.52;;
56307;SDS011;42217;50.422;7.210;2023-05-07T06:35:30;548.70;;;519.60;;
56307;SDS011;42217;50.422;7.210;2023-05-07T06:37:56;537.72;;;509.30;;
56307;SDS011;42217;50.422;7.210;2023-05-07T06:40:22;549.70;;;520.17;;
56307;SDS011;42217;50.422;7.210;2023-05-07T06:42:47;547.92;;;519.00;;
56307;SDS011;42217;50.422;7.210;2023-05-07T06:45:13;550.42;;;520.97;;
56307;SDS011;42217;50.422;7.210;2023-05-07T06:47:39;527.95;;;500.25;;
56307;SDS011;42217;50.422;7.210;2023-05-07T06:50:05;531.42;;;503.80;;
56307;SDS011;42217;50.422;7.210;2023-05-07T06:52:31;478.85;;;454.38;;
56307;SDS011;42217;50.422;7.210;2023-05-07T06:54:57;491.63;;;466.45;;
56307;SDS011;42217;50.422;7.210;2023-05-07T06:57:22;486.73;;;462.05;;
56307;SDS011;42217;50.422;7.210;2023-05-07T06:59:48;519.65;;;492.58;;
56307;SDS011;42217;50.422;7.210;2023-05-07T07:02:14;483.15;;;458.60;;
56307;SDS011;42217;50.422;7.210;2023-05-07T07:04:40;497.65;;;471.98;;
56307;SDS011;42217;50.422;7.210;2023-05-07T07:07:06;489.08;;;464.30;;
56307;SDS011;42217;50.422;7.210;2023-05-07T07:09:32;459.45;;;436.63;;
56307;SDS011;42217;50.422;7.210;2023-05-07T07:11:58;489.52;;;464.40;;
56307;SDS011;42217;50.422;7.210;2023-05-07T07:14:24;436.75;;;415.15;;
56307;SDS011;42217;50.422;7.210;2023-05-07T07:16:49;435.83;;;414.25;;
56307;SDS011;42217;50.422;7.210;2023-05-07T07:19:15;419.00;;;398.52;;
56307;SDS011;42217;50.422;7.210;2023-05-07T07:21:41;404.80;;;385.25;;
56307;SDS011;42217;50.422;7.210;2023-05-07T07:24:07;328.85;;;313.58;;
56307;SDS011;42217;50.422;7.210;2023-05-07T07:26:33;311.42;;;297.13;;
56307;SDS011;42217;50.422;7.210;2023-05-07T07:28:58;313.27;;;298.88;;
56307;SDS011;42217;50.422;7.210;2023-05-07T07:31:24;313.25;;;298.73;;
56307;SDS011;42217;50.422;7.210;2023-05-07T07:33:50;294.10;;;280.42;;
56307;SDS011;42217;50.422;7.210;2023-05-07T07:36:16;277.00;;;264.13;;
56307;SDS011;42217;50.422;7.210;2023-05-07T07:38:41;274.13;;;261.63;;
56307;SDS011;42217;50.422;7.210;2023-05-07T07:41:10;263.13;;;251.48;;
56307;SDS011;42217;50.422;7.210;2023-05-07T07:43:35;211.70;;;202.07;;
56307;SDS011;42217;50.422;7.210;2023-05-07T07:46:01;197.80;;;188.85;;
56307;SDS011;42217;50.422;7.210;2023-05-07T07:48:27;181.70;;;173.40;;
56307;SDS011;42217;50.422;7.210;2023-05-07T07:50:52;155.43;;;148.23;;
56307;SDS011;42217;50.422;7.210;2023-05-07T07:53:18;129.32;;;123.15;;
56307;SDS011;42217;50.422;7.210;2023-05-07T07:55:44;126.82;;;120.40;;
56307;SDS011;42217;50.422;7.210;2023-05-07T07:58:10;118.10;;;112.60;;
56307;SDS011;42217;50.422;7.210;2023-05-07T08:00:36;112.55;;;107.40;;
56307;SDS011;42217;50.422;7.210;2023-05-07T08:03:01;104.63;;;99.72;;
56307;SDS011;42217;50.422;7.210;2023-05-07T08:05:28;107.63;;;102.63;;
56307;SDS011;42217;50.422;7.210;2023-05-07T08:07:54;110.40;;;105.15;;
56307;SDS011;42217;50.422;7.210;2023-05-07T08:10:20;124.60;;;118.97;;
56307;SDS011;42217;50.422;7.210;2023-05-07T08:12:49;111.50;;;106.45;;
56307;SDS011;42217;50.422;7.210;2023-05-07T08:15:16;111.88;;;106.78;;
56307;SDS011;42217;50.422;7.210;2023-05-07T08:17:42;100.70;;;96.20;;
56307;SDS011;42217;50.422;7.210;2023-05-07T08:20:08;105.60;;;100.65;;
56307;SDS011;42217;50.422;7.210;2023-05-07T08:22:35;101.43;;;96.85;;
56307;SDS011;42217;50.422;7.210;2023-05-07T08:25:01;104.25;;;99.40;;
56307;SDS011;42217;50.422;7.210;2023-05-07T08:27:27;96.57;;;92.05;;
56307;SDS011;42217;50.422;7.210;2023-05-07T08:29:53;112.40;;;107.20;;
56307;SDS011;42217;50.422;7.210;2023-05-07T08:32:19;99.32;;;94.72;;
56307;SDS011;42217;50.422;7.210;2023-05-07T08:34:45;92.85;;;88.25;;
56307;SDS011;42217;50.422;7.210;2023-05-07T08:37:12;90.30;;;85.93;;
56307;SDS011;42217;50.422;7.210;2023-05-07T08:39:37;85.90;;;82.03;;
56307;SDS011;42217;50.422;7.210;2023-05-07T08:42:03;71.70;;;68.20;;
56307;SDS011;42217;50.422;7.210;2023-05-07T08:44:35;76.03;;;72.43;;
56307;SDS011;42217;50.422;7.210;2023-05-07T08:47:03;76.57;;;73.05;;
56307;SDS011;42217;50.422;7.210;2023-05-07T08:49:31;74.25;;;70.72;;
56307;SDS011;42217;50.422;7.210;2023-05-07T08:51:59;69.18;;;65.65;;
56307;SDS011;42217;50.422;7.210;2023-05-07T08:54:25;57.75;;;54.78;;
56307;SDS011;42217;50.422;7.210;2023-05-07T08:56:52;55.78;;;53.17;;
56307;SDS011;42217;50.422;7.210;2023-05-07T08:59:18;53.13;;;50.70;;
56307;SDS011;42217;50.422;7.210;2023-05-07T09:01:43;56.15;;;53.58;;
56307;SDS011;42217;50.422;7.210;2023-05-07T09:04:09;56.30;;;53.63;;
56307;SDS011;42217;50.422;7.210;2023-05-07T09:06:35;59.75;;;56.95;;
56307;SDS011;42217;50.422;7.210;2023-05-07T09:09:02;57.53;;;54.75;;
56307;SDS011;42217;50.422;7.210;2023-05-07T09:11:30;60.65;;;57.75;;
56307;SDS011;42217;50.422;7.210;2023-05-07T09:13:56;61.15;;;58.22;;
56307;SDS011;42217;50.422;7.210;2023-05-07T09:16:24;65.85;;;62.83;;
56307;SDS011;42217;50.422;7.210;2023-05-07T09:18:51;73.30;;;69.72;;
56307;SDS011;42217;50.422;7.210;2023-05-07T09:21:18;76.70;;;73.20;;
56307;SDS011;42217;50.422;7.210;2023-05-07T09:23:47;80.30;;;76.63;;
56307;SDS011;42217;50.422;7.210;2023-05-07T09:26:16;89.38;;;85.25;;
56307;SDS011;42217;50.422;7.210;2023-05-07T09:28:43;89.10;;;84.90;;
56307;SDS011;42217;50.422;7.210;2023-05-07T09:31:10;96.30;;;91.85;;
56307;SDS011;42217;50.422;7.210;2023-05-07T09:33:36;91.60;;;87.40;;
56307;SDS011;42217;50.422;7.210;2023-05-07T09:36:06;100.32;;;95.78;;
56307;SDS011;42217;50.422;7.210;2023-05-07T09:38:34;111.35;;;106.35;;
56307;SDS011;42217;50.422;7.210;2023-05-07T09:41:04;108.15;;;103.03;;
56307;SDS011;42217;50.422;7.210;2023-05-07T09:43:33;123.65;;;118.07;;
56307;SDS011;42217;50.422;7.210;2023-05-07T09:46:07;125.22;;;119.55;;
56307;SDS011;42217;50.422;7.210;2023-05-07T09:48:40;116.22;;;110.78;;
56307;SDS011;42217;50.422;7.210;2023-05-07T09:51:28;123.87;;;118.17;;
56307;SDS011;42217;50.422;7.210;2023-05-07T09:54:06;120.03;;;114.63;;
56307;SDS011;42217;50.422;7.210;2023-05-07T09:56:32;122.30;;;116.68;;
56307;SDS011;42217;50.422;7.210;2023-05-07T09:58:59;119.80;;;114.40;;
56307;SDS011;42217;50.422;7.210;2023-05-07T10:01:25;128.20;;;122.25;;
56307;SDS011;42217;50.422;7.210;2023-05-07T10:03:52;125.78;;;119.88;;
56307;SDS011;42217;50.422;7.210;2023-05-07T10:06:19;131.88;;;125.63;;
56307;SDS011;42217;50.422;7.210;2023-05-07T10:08:45;128.48;;;122.40;;
56307;SDS011;42217;50.422;7.210;2023-05-07T10:11:13;126.00;;;120.07;;
56307;SDS011;42217;50.422;7.210;2023-05-07T10:13:40;130.63;;;124.72;;
56307;SDS011;42217;50.422;7.210;2023-05-07T10:16:07;131.48;;;125.30;;
56307;SDS011;42217;50.422;7.210;2023-05-07T10:18:33;124.68;;;118.78;;
56307;SDS011;42217;50.422;7.210;2023-05-07T10:21:01;124.82;;;118.72;;
56307;SDS011;42217;50.422;7.210;2023-05-07T10:23:36;120.78;;;115.00;;
56307;SDS011;42217;50.422;7.210;2023-05-07T10:26:04;119.05;;;113.70;;
56307;SDS011;42217;50.422;7.210;2023-05-07T10:28:33;123.55;;;117.90;;
56307;SDS011;42217;50.422;7.210;2023-05-07T10:33:50;123.25;;;117.55;;
56307;SDS011;42217;50.422;7.210;2023-05-07T10:36:18;118.72;;;113.18;;
56307;SDS011;42217;50.422;7.210;2023-05-07T10:38:46;109.85;;;104.55;;
56307;SDS011;42217;50.422;7.210;2023-05-07T10:41:12;108.47;;;103.28;;
56307;SDS011;42217;50.422;7.210;2023-05-07T10:43:39;112.90;;;107.60;;
56307;SDS011;42217;50.422;7.210;2023-05-07T10:46:10;108.30;;;103.32;;
56307;SDS011;42217;50.422;7.210;2023-05-07T10:51:28;92.45;;;88.13;;
56307;SDS011;42217;50.422;7.210;2023-05-07T10:56:37;84.38;;;80.32;;
56307;SDS011;42217;50.422;7.210;2023-05-07T11:01:58;88.28;;;84.13;;
56307;SDS011;42217;50.422;7.210;2023-05-07T11:04:31;69.18;;;65.95;;
56307;SDS011;42217;50.422;7.210;2023-05-07T11:12:16;57.80;;;55.10;;
56307;SDS011;42217;50.422;7.210;2023-05-07T11:15:05;59.88;;;56.97;;
56307;SDS011;42217;50.422;7.210;2023-05-07T11:17:31;62.95;;;60.00;;
56307;SDS011;42217;50.422;7.210;2023-05-07T11:20:02;71.28;;;67.88;;
56307;SDS011;42217;50.422;7.210;2023-05-07T11:27:27;59.40;;;56.67;;
56307;SDS011;42217;50.422;7.210;2023-05-07T11:29:55;65.50;;;62.35;;
56307;SDS011;42217;50.422;7.210;2023-05-07T11:32:24;70.95;;;67.63;;
56307;SDS011;42217;50.422;7.210;2023-05-07T11:34:52;84.60;;;80.78;;
56307;SDS011;42217;50.422;7.210;2023-05-07T11:37:18;77.05;;;73.50;;
56307;SDS011;42217;50.422;7.210;2023-05-07T11:39:47;73.43;;;70.03;;
56307;SDS011;42217;50.422;7.210;2023-05-07T11:42:28;72.38;;;69.03;;
56307;SDS011;42217;50.422;7.210;2023-05-07T11:44:59;76.85;;;73.35;;
56307;SDS011;42217;50.422;7.210;2023-05-07T11:47:25;72.78;;;69.38;;
56307;SDS011;42217;50.422;7.210;2023-05-07T11:49:52;70.28;;;67.07;;
56307;SDS011;42217;50.422;7.210;2023-05-07T11:52:19;69.57;;;66.38;;
56307;SDS011;42217;50.422;7.210;2023-05-07T11:54:52;73.55;;;69.88;;
56307;SDS011;42217;50.422;7.210;2023-05-07T11:57:20;71.30;;;68.03;;
56307;SDS011;42217;50.422;7.210;2023-05-07T11:59:46;66.90;;;63.83;;
56307;SDS011;42217;50.422;7.210;2023-05-07T12:02:17;71.20;;;67.55;;
56307;SDS011;42217;50.422;7.210;2023-05-07T12:04:43;68.95;;;65.85;;
56307;SDS011;42217;50.422;7.210;2023-05-07T12:07:12;62.97;;;60.08;;
56307;SDS011;42217;50.422;7.210;2023-05-07T12:09:42;69.10;;;65.85;;
56307;SDS011;42217;50.422;7.210;2023-05-07T12:12:08;69.38;;;65.88;;
56307;SDS011;42217;50.422;7.210;2023-05-07T12:14:41;65.13;;;62.13;;
56307;SDS011;42217;50.422;7.210;2023-05-07T12:17:08;66.35;;;63.10;;
56307;SDS011;42217;50.422;7.210;2023-05-07T12:19:35;63.05;;;60.17;;
56307;SDS011;42217;50.422;7.210;2023-05-07T12:22:05;69.70;;;66.45;;
56307;SDS011;42217;50.422;7.210;2023-05-07T12:24:43;72.88;;;69.38;;
56307;SDS011;42217;50.422;7.210;2023-05-07T12:27:10;65.68;;;62.58;;
56307;SDS011;42217;50.422;7.210;2023-05-07T12:29:35;67.78;;;64.35;;
56307;SDS011;42217;50.422;7.210;2023-05-07T12:32:04;64.00;;;60.70;;
56307;SDS011;42217;50.422;7.210;2023-05-07T12:34:31;62.90;;;59.92;;
56307;SDS011;42217;50.422;7.210;2023-05-07T12:36:57;61.13;;;58.30;;
56307;SDS011;42217;50.422;7.210;2023-05-07T12:39:26;57.35;;;54.65;;
56307;SDS011;42217;50.422;7.210;2023-05-07T12:41:55;61.38;;;58.38;;
56307;SDS011;42217;50.422;7.210;2023-05-07T12:44:29;57.03;;;54.40;;
56307;SDS011;42217;50.422;7.210;2023-05-07T12:46:58;60.00;;;57.08;;
56307;SDS011;42217;50.422;7.210;2023-05-07T12:49:26;60.33;;;57.17;;
56307;SDS011;42217;50.422;7.210;2023-05-07T12:51:53;64.70;;;61.58;;
56307;SDS011;42217;50.422;7.210;2023-05-07T12:54:31;75.57;;;71.95;;
56307;SDS011;42217;50.422;7.210;2023-05-07T12:57:05;87.72;;;83.53;;
56307;SDS011;42217;50.422;7.210;2023-05-07T12:59:36;95.57;;;91.15;;
56307;SDS011;42217;50.422;7.210;2023-05-07T13:02:03;88.20;;;84.07;;
56307;SDS011;42217;50.422;7.210;2023-05-07T13:04:29;78.55;;;75.03;;
56307;SDS011;42217;50.422;7.210;2023-05-07T13:06:55;90.95;;;86.75;;
56307;SDS011;42217;50.422;7.210;2023-05-07T13:09:20;88.15;;;84.13;;
56307;SDS011;42217;50.422;7.210;2023-05-07T13:11:46;79.10;;;75.35;;
56307;SDS011;42217;50.422;7.210;2023-05-07T13:14:12;78.82;;;74.85;;
56307;SDS011;42217;50.422;7.210;2023-05-07T13:16:38;80.43;;;76.82;;
56307;SDS011;42217;50.422;7.210;2023-05-07T13:19:03;77.38;;;73.65;;
56307;SDS011;42217;50.422;7.210;2023-05-07T13:21:29;73.47;;;70.13;;
56307;SDS011;42217;50.422;7.210;2023-05-07T13:23:58;76.68;;;73.13;;
56307;SDS011;42217;50.422;7.210;2023-05-07T13:26:24;80.45;;;76.85;;
56307;SDS011;42217;50.422;7.210;2023-05-07T13:28:50;72.05;;;68.80;;
56307;SDS011;42217;50.422;7.210;2023-05-07T13:31:17;67.07;;;63.85;;
56307;SDS011;42217;50.422;7.210;2023-05-07T13:33:43;64.15;;;61.08;;
56307;SDS011;42217;50.422;7.210;2023-05-07T13:36:08;61.50;;;58.63;;
56307;SDS011;42217;50.422;7.210;2023-05-07T13:38:34;57.08;;;54.45;;
56307;SDS011;42217;50.422;7.210;2023-05-07T13:41:00;65.40;;;62.25;;
56307;SDS011;42217;50.422;7.210;2023-05-07T13:43:26;61.15;;;58.15;;
56307;SDS011;42217;50.422;7.210;2023-05-07T13:45:51;56.88;;;53.63;;
56307;SDS011;42217;50.422;7.210;2023-05-07T13:48:17;61.72;;;58.92;;
56307;SDS011;42217;50.422;7.210;2023-05-07T13:50:42;54.22;;;51.72;;
56307;SDS011;42217;50.422;7.210;2023-05-07T13:53:08;58.35;;;55.53;;
56307;SDS011;42217;50.422;7.210;2023-05-07T13:55:34;63.80;;;60.90;;
56307;SDS011;42217;50.422;7.210;2023-05-07T13:58:00;60.80;;;57.80;;
56307;SDS011;42217;50.422;7.210;2023-05-07T14:00:28;61.28;;;58.20;;
56307;SDS011;42217;50.422;7.210;2023-05-07T14:02:54;62.70;;;59.17;;
56307;SDS011;42217;50.422;7.210;2023-05-07T14:05:21;65.72;;;62.60;;
56307;SDS011;42217;50.422;7.210;2023-05-07T14:07:52;64.78;;;61.63;;
56307;SDS011;42217;50.422;7.210;2023-05-07T14:10:19;65.80;;;62.42;;
56307;SDS011;42217;50.422;7.210;2023-05-07T14:12:45;59.63;;;56.83;;
56307;SDS011;42217;50.422;7.210;2023-05-07T14:15:11;59.97;;;57.03;;
56307;SDS011;42217;50.422;7.210;2023-05-07T14:17:37;61.80;;;58.92;;
56307;SDS011;42217;50.422;7.210;2023-05-07T14:20:03;63.97;;;60.83;;
56307;SDS011;42217;50.422;7.210;2023-05-07T14:22:31;65.90;;;62.65;;